Time;durP1;ratioP1;P1;durP2;ratioP2;P2;SDS_P1;SDS_P2;PMS_P1;PMS_P2;Temp;Humidity;BMP_temperature;BMP_pressure;BME280_temperature;BME280_humidity;BME280_pressure;Samples;Min_cycle;Max_cycle;Signal;HPM_P1;HPM_P2
2021/08/23 00:00:42;;;;;;;6.97;5.73;;;19.90;99.90;;;;;;5023122;28;20456;-79
2021/08/23 00:03:09;;;;;;;9.70;6.40;;;19.90;99.90;;;;;;5017450;28;20493;-80
2021/08/23 00:05:36;;;;;;;7.83;7.03;;;19.90;99.90;;;;;;5020922;28;20461;-81
2021/08/23 00:08:03;;;;;;;9.70;7.20;;;19.90;99.90;;;;;;5022668;28;20464;-79
2021/08/23 00:10:32;;;;;;;7.40;6.60;;;19.90;99.90;;;;;;5015261;28;20528;-80
2021/08/23 00:12:58;;;;;;;7.13;6.43;;;19.90;99.90;;;;;;5023761;28;20467;-83
2021/08/23 00:15:25;;;;;;;8.30;6.90;;;19.90;99.90;;;;;;5022289;28;20464;-82
2021/08/23 00:17:52;;;;;;;8.67;7.77;;;19.90;99.90;;;;;;5018138;28;20472;-83
2021/08/23 00:20:24;;;;;;;6.97;6.37;;;19.90;99.90;;;;;;5019939;28;20472;-79
2021/08/23 00:22:54;;;;;;;7.60;6.90;;;19.90;99.90;;;;;;5018011;28;21104;-81
2021/08/23 00:25:22;;;;;;;7.53;6.83;;;19.90;99.90;;;;;;5022085;28;20506;-80
2021/08/23 00:27:50;;;;;;;10.93;7.10;;;19.90;99.90;;;;;;5020917;28;20473;-80
2021/08/23 00:30:17;;;;;;;8.73;7.83;;;19.90;99.90;;;;;;5017171;28;21046;-82
2021/08/23 00:32:44;;;;;;;10.00;8.20;;;19.90;99.90;;;;;;5021012;28;20947;-82
2021/08/23 00:35:12;;;;;;;9.70;7.97;;;19.90;99.90;;;;;;5018935;28;20510;-79
2021/08/23 00:37:39;;;;;;;10.00;8.97;;;19.90;99.90;;;;;;5020359;28;20465;-80
2021/08/23 00:40:08;;;;;;;9.97;9.00;;;19.90;99.90;;;;;;5022601;28;20523;-80
2021/08/23 00:42:35;;;;;;;9.93;9.03;;;19.90;99.90;;;;;;5016001;28;20555;-83
2021/08/23 00:45:04;;;;;;;11.73;10.47;;;19.90;99.90;;;;;;5015574;28;20469;-83
2021/08/23 00:48:02;;;;;;;10.57;9.23;;;19.90;99.90;;;;;;5017501;28;20465;-82
2021/08/23 00:50:29;;;;;;;12.23;10.50;;;19.90;99.90;;;;;;5022827;28;20491;-80
2021/08/23 00:52:56;;;;;;;11.10;10.00;;;19.90;99.90;;;;;;5015984;28;20459;-79
2021/08/23 00:55:24;;;;;;;12.53;11.23;;;19.90;99.90;;;;;;5017923;28;20474;-81
2021/08/23 00:58:09;;;;;;;12.17;10.77;;;19.80;99.90;;;;;;5020468;28;20856;-83
2021/08/23 01:00:43;;;;;;;14.60;11.00;;;19.80;99.90;;;;;;5022866;28;20457;-82
2021/08/23 01:03:12;;;;;;;12.50;11.30;;;19.80;99.90;;;;;;5016474;28;20489;-79
2021/08/23 01:05:41;;;;;;;13.30;11.90;;;19.80;99.90;;;;;;5022013;28;20841;-79
2021/08/23 01:08:15;;;;;;;13.50;11.93;;;19.80;99.90;;;;;;5021686;28;20544;-80
2021/08/23 01:10:46;;;;;;;13.17;11.83;;;19.80;99.90;;;;;;5022249;28;20494;-79
2021/08/23 01:13:14;;;;;;;15.30;12.40;;;19.80;99.90;;;;;;5016157;28;20457;-79
2021/08/23 01:15:42;;;;;;;14.50;11.60;;;19.80;99.90;;;;;;5023891;28;20485;-83
2021/08/23 01:18:10;;;;;;;14.53;12.70;;;19.80;99.90;;;;;;5018566;28;20481;-79
2021/08/23 01:20:40;;;;;;;23.57;13.13;;;19.80;99.90;;;;;;5023447;28;20456;-81
2021/08/23 01:23:08;;;;;;;15.90;12.57;;;19.80;99.90;;;;;;5021115;28;20469;-82
2021/08/23 01:25:37;;;;;;;16.50;13.10;;;19.80;99.90;;;;;;5018218;28;20460;-82
2021/08/23 01:28:10;;;;;;;15.07;13.03;;;19.80;99.90;;;;;;5022752;28;20472;-79
2021/08/23 01:30:55;;;;;;;14.07;12.67;;;19.80;99.90;;;;;;5022285;28;20502;-79
2021/08/23 01:33:25;;;;;;;13.80;12.50;;;19.80;99.90;;;;;;5028383;28;20482;-80
2021/08/23 01:35:53;;;;;;;13.27;11.87;;;19.80;99.90;;;;;;5019476;28;20467;-80
2021/08/23 01:38:20;;;;;;;14.90;13.37;;;19.90;99.90;;;;;;5022744;28;20461;-81
2021/08/23 01:40:47;;;;;;;13.70;12.30;;;19.90;99.90;;;;;;5022581;28;20935;-82
2021/08/23 01:43:14;;;;;;;14.40;13.00;;;19.90;99.90;;;;;;5023814;28;20461;-79
2021/08/23 01:45:41;;;;;;;14.60;12.87;;;19.80;99.90;;;;;;5023767;28;20469;-82
2021/08/23 01:48:08;;;;;;;13.27;11.97;;;19.90;99.90;;;;;;5022129;28;20453;-80
2021/08/23 01:50:36;;;;;;;15.30;12.37;;;19.90;99.90;;;;;;5022408;28;20487;-79
2021/08/23 01:53:04;;;;;;;13.73;12.07;;;19.90;99.90;;;;;;5021560;28;20465;-84
2021/08/23 01:55:31;;;;;;;14.23;12.70;;;19.90;99.90;;;;;;5018726;28;20537;-79
2021/08/23 01:57:58;;;;;;;14.50;13.10;;;19.90;99.90;;;;;;5023070;28;20514;-80
2021/08/23 02:00:25;;;;;;;14.27;12.77;;;19.90;99.90;;;;;;5020789;28;20465;-79
2021/08/23 02:02:51;;;;;;;14.50;12.93;;;19.90;99.90;;;;;;5026120;28;20492;-79
2021/08/23 02:05:18;;;;;;;14.80;13.30;;;19.90;99.90;;;;;;5023301;28;20461;-80
2021/08/23 02:07:47;;;;;;;16.37;14.60;;;19.90;99.90;;;;;;5016690;28;20461;-83
2021/08/23 02:10:14;;;;;;;13.90;12.50;;;19.90;99.90;;;;;;5017832;28;20969;-81
2021/08/23 02:12:41;;;;;;;15.10;13.60;;;19.90;99.90;;;;;;5024826;28;21313;-81
2021/08/23 02:15:09;;;;;;;14.53;13.03;;;19.90;99.90;;;;;;5027297;28;20494;-83
2021/08/23 02:17:36;;;;;;;17.40;13.63;;;19.90;99.90;;;;;;5017333;28;20560;-80
2021/08/23 02:20:05;;;;;;;15.13;13.53;;;19.90;99.90;;;;;;5021689;28;20476;-79
2021/08/23 02:22:32;;;;;;;14.90;13.50;;;19.90;99.90;;;;;;5014369;28;21015;-83
2021/08/23 02:25:00;;;;;;;14.77;13.37;;;19.90;99.90;;;;;;5021413;28;20979;-79
2021/08/23 02:27:27;;;;;;;15.27;13.67;;;19.90;99.90;;;;;;5021984;28;20547;-79
2021/08/23 02:29:54;;;;;;;16.70;14.53;;;19.90;99.90;;;;;;5021454;28;20464;-79
2021/08/23 02:32:21;;;;;;;14.80;12.33;;;19.90;99.90;;;;;;5017679;28;20472;-80
2021/08/23 02:34:48;;;;;;;14.90;13.40;;;19.90;99.90;;;;;;5019606;28;20464;-80
2021/08/23 02:37:15;;;;;;;16.13;14.23;;;19.90;99.90;;;;;;5017249;28;20453;-80
2021/08/23 02:39:43;;;;;;;14.90;13.40;;;19.90;99.90;;;;;;5025279;28;20560;-83
2021/08/23 02:42:11;;;;;;;15.10;13.40;;;19.90;99.90;;;;;;5021846;28;20566;-82
2021/08/23 02:44:39;;;;;;;14.40;12.90;;;19.90;99.90;;;;;;5020940;28;20501;-79
2021/08/23 02:47:06;;;;;;;16.57;12.83;;;19.90;99.90;;;;;;5018877;28;20503;-79
2021/08/23 02:49:33;;;;;;;17.30;14.60;;;19.90;99.90;;;;;;5022136;28;20475;-80
2021/08/23 02:52:00;;;;;;;16.73;13.60;;;19.90;99.90;;;;;;5015101;28;20507;-81
2021/08/23 02:54:28;;;;;;;16.40;14.33;;;19.90;99.90;;;;;;5023114;28;20820;-80
2021/08/23 02:56:55;;;;;;;15.80;13.90;;;19.90;99.90;;;;;;5014997;28;20501;-81
2021/08/23 02:59:24;;;;;;;16.40;14.70;;;19.90;99.90;;;;;;5013833;28;20465;-84
2021/08/23 03:01:51;;;;;;;15.93;14.23;;;19.90;99.90;;;;;;5022146;28;20492;-82
2021/08/23 03:04:17;;;;;;;16.03;14.37;;;19.90;99.90;;;;;;5015617;28;20453;-80
2021/08/23 03:06:45;;;;;;;16.20;13.87;;;19.90;99.90;;;;;;5022761;28;20524;-79
2021/08/23 03:09:13;;;;;;;18.90;14.83;;;19.90;99.90;;;;;;5016250;28;20464;-82
2021/08/23 03:11:41;;;;;;;19.00;14.93;;;19.90;99.90;;;;;;5018559;28;20848;-79
2021/08/23 03:14:08;;;;;;;14.80;13.30;;;19.90;99.90;;;;;;5018105;28;20453;-80
2021/08/23 03:16:37;;;;;;;17.80;15.00;;;19.90;99.90;;;;;;5019611;28;20467;-80
2021/08/23 03:19:03;;;;;;;19.40;15.70;;;19.90;99.90;;;;;;5017585;28;20497;-82
2021/08/23 03:21:30;;;;;;;16.80;15.00;;;19.90;99.90;;;;;;5020265;28;20467;-82
2021/08/23 03:23:57;;;;;;;19.23;15.40;;;19.90;99.90;;;;;;5012312;28;20583;-83
2021/08/23 03:26:25;;;;;;;17.77;14.60;;;19.90;99.90;;;;;;5012009;28;20492;-82
2021/08/23 03:28:52;;;;;;;17.50;14.40;;;19.90;99.90;;;;;;5022150;28;20483;-80
2021/08/23 03:31:19;;;;;;;17.60;14.67;;;19.90;99.90;;;;;;5023289;28;20571;-78
2021/08/23 03:33:47;;;;;;;16.00;14.30;;;19.90;99.90;;;;;;5021967;28;20471;-81
2021/08/23 03:36:14;;;;;;;17.80;15.30;;;19.90;99.90;;;;;;5018466;28;20485;-79
2021/08/23 03:38:42;;;;;;;20.10;15.20;;;19.90;99.90;;;;;;5022998;28;20496;-80
2021/08/23 03:41:10;;;;;;;17.97;14.10;;;19.90;99.90;;;;;;5020789;28;20488;-78
2021/08/23 03:43:37;;;;;;;19.60;14.63;;;19.90;99.90;;;;;;5013189;28;20459;-81
2021/08/23 03:46:17;;;;;;;21.13;15.10;;;19.90;99.90;;;;;;5022642;28;20994;-83
2021/08/23 03:48:47;;;;;;;21.13;14.77;;;19.90;99.90;;;;;;5018871;28;20452;-80
2021/08/23 03:51:14;;;;;;;17.97;13.90;;;19.90;99.90;;;;;;5015810;28;20483;-80
2021/08/23 03:53:42;;;;;;;26.43;16.10;;;19.90;99.90;;;;;;5020689;28;20457;-83
2021/08/23 03:56:09;;;;;;;18.77;14.07;;;19.90;99.90;;;;;;5018501;28;20461;-78
2021/08/23 03:58:37;;;;;;;21.93;14.70;;;19.80;99.90;;;;;;5015025;28;20466;-80
2021/08/23 04:01:05;;;;;;;19.67;15.03;;;19.90;99.90;;;;;;5020580;28;20473;-80
2021/08/23 04:03:33;;;;;;;17.57;13.13;;;19.80;99.90;;;;;;5024296;28;20829;-80
2021/08/23 04:06:02;;;;;;;18.00;14.13;;;19.80;99.90;;;;;;5022179;28;20468;-81
2021/08/23 04:08:29;;;;;;;23.00;14.10;;;19.80;99.90;;;;;;5017698;28;20456;-81
2021/08/23 04:10:56;;;;;;;19.33;14.20;;;19.80;99.90;;;;;;5020300;28;20587;-82
2021/08/23 04:13:24;;;;;;;18.10;13.67;;;19.80;99.90;;;;;;5017187;28;20780;-80
2021/08/23 04:15:50;;;;;;;17.37;13.90;;;19.80;99.90;;;;;;5018291;28;20548;-80
2021/08/23 04:18:17;;;;;;;19.40;14.53;;;19.80;99.90;;;;;;5018082;28;20551;-79
2021/08/23 04:20:45;;;;;;;17.07;13.03;;;19.80;99.90;;;;;;5019413;28;20968;-79
2021/08/23 04:23:14;;;;;;;17.20;12.50;;;19.80;99.90;;;;;;5022752;28;20468;-83
2021/08/23 04:25:42;;;;;;;16.80;12.10;;;19.80;99.90;;;;;;5015707;28;20472;-82
2021/08/23 04:28:09;;;;;;;15.90;11.93;;;19.70;99.90;;;;;;5024969;28;20944;-78
2021/08/23 04:30:36;;;;;;;16.63;12.47;;;19.70;99.90;;;;;;5020251;28;20821;-77
2021/08/23 04:33:03;;;;;;;16.20;13.60;;;19.80;99.90;;;;;;5017144;28;20471;-77
2021/08/23 04:35:30;;;;;;;15.70;13.70;;;19.70;99.90;;;;;;5019831;28;20974;-76
2021/08/23 04:37:56;;;;;;;14.90;13.20;;;19.70;99.90;;;;;;5022036;28;20467;-76
2021/08/23 04:40:25;;;;;;;17.10;14.90;;;19.70;99.90;;;;;;5021007;28;20474;-77
2021/08/23 04:42:52;;;;;;;15.10;13.23;;;19.70;99.90;;;;;;5027604;28;20469;-77
2021/08/23 04:45:19;;;;;;;14.00;12.63;;;19.70;99.90;;;;;;5027028;28;20471;-77
2021/08/23 04:47:46;;;;;;;17.30;14.07;;;19.70;99.90;;;;;;5027395;28;20470;-82
2021/08/23 04:50:13;;;;;;;15.57;13.60;;;19.70;99.90;;;;;;5018323;28;20464;-80
2021/08/23 04:52:43;;;;;;;14.97;13.40;;;19.70;99.90;;;;;;5023486;28;20489;-81
2021/08/23 04:55:11;;;;;;;18.10;13.77;;;19.70;99.90;;;;;;5019098;28;20522;-79
2021/08/23 04:57:39;;;;;;;17.03;12.70;;;19.70;99.90;;;;;;5027461;28;20531;-82
2021/08/23 05:00:09;;;;;;;14.70;13.10;;;19.70;99.90;;;;;;5018555;28;20575;-81
2021/08/23 05:02:36;;;;;;;16.70;14.30;;;19.70;99.90;;;;;;5028037;28;21023;-82
2021/08/23 05:05:03;;;;;;;15.23;13.67;;;19.70;99.90;;;;;;5016891;28;20479;-80
2021/08/23 05:07:30;;;;;;;17.50;13.40;;;19.60;99.90;;;;;;5020256;28;20964;-80
2021/08/23 05:09:57;;;;;;;16.40;13.70;;;19.60;99.90;;;;;;5018785;28;20510;-79
2021/08/23 05:12:24;;;;;;;15.33;13.70;;;19.70;99.90;;;;;;5019952;28;20493;-79
2021/08/23 05:14:53;;;;;;;17.40;14.53;;;19.70;99.90;;;;;;5020442;28;20465;-83
2021/08/23 05:17:20;;;;;;;18.10;16.07;;;19.60;99.90;;;;;;5022544;28;20457;-80
2021/08/23 05:19:46;;;;;;;17.93;16.03;;;19.60;99.90;;;;;;5016548;28;20836;-79
2021/08/23 05:22:13;;;;;;;18.23;15.63;;;19.60;99.90;;;;;;5021105;28;20563;-80
2021/08/23 05:24:40;;;;;;;19.00;15.40;;;19.60;99.90;;;;;;5023123;28;20541;-80
2021/08/23 05:27:07;;;;;;;21.43;15.40;;;19.60;99.90;;;;;;5026950;28;20847;-83
2021/08/23 05:29:34;;;;;;;19.57;15.60;;;19.60;99.90;;;;;;5021435;28;20559;-78
2021/08/23 05:32:02;;;;;;;16.60;14.00;;;19.60;99.90;;;;;;5024112;28;20487;-79
2021/08/23 05:34:29;;;;;;;17.77;14.53;;;19.60;99.90;;;;;;5021800;28;20497;-81
2021/08/23 05:36:55;;;;;;;19.77;15.27;;;19.60;99.90;;;;;;5025069;28;20525;-83
2021/08/23 05:39:22;;;;;;;19.10;14.90;;;19.60;99.90;;;;;;5013764;28;20981;-82
2021/08/23 05:41:49;;;;;;;19.10;15.30;;;19.60;99.90;;;;;;5027428;28;20464;-82
2021/08/23 05:44:16;;;;;;;18.53;15.53;;;19.60;99.90;;;;;;5025615;28;20842;-83
2021/08/23 05:46:43;;;;;;;17.17;15.37;;;19.60;99.90;;;;;;5024930;28;20460;-79
2021/08/23 05:49:11;;;;;;;17.90;15.67;;;19.60;99.90;;;;;;5025472;28;20471;-82
2021/08/23 05:51:38;;;;;;;17.87;13.97;;;19.60;99.90;;;;;;5023913;28;21001;-81
2021/08/23 05:54:05;;;;;;;18.07;15.07;;;19.60;99.90;;;;;;5025881;28;20547;-79
2021/08/23 05:56:32;;;;;;;30.30;24.00;;;19.60;99.90;;;;;;5020553;28;20468;-81
2021/08/23 05:58:58;;;;;;;28.70;23.17;;;19.60;99.90;;;;;;5017878;28;20469;-83
2021/08/23 06:01:25;;;;;;;28.47;21.20;;;19.50;99.90;;;;;;5023233;28;20480;-79
2021/08/23 06:03:52;;;;;;;17.03;15.20;;;19.50;99.90;;;;;;5018552;28;21274;-83
2021/08/23 06:06:20;;;;;;;19.43;16.57;;;19.50;99.90;;;;;;5027793;28;20461;-80
2021/08/23 06:08:47;;;;;;;20.83;14.90;;;19.50;99.90;;;;;;5019258;28;20987;-80
2021/08/23 06:11:15;;;;;;;18.80;14.43;;;19.40;99.90;;;;;;5017691;28;20496;-79
2021/08/23 06:13:41;;;;;;;18.47;14.93;;;19.40;99.90;;;;;;5017605;28;20468;-81
2021/08/23 06:16:08;;;;;;;16.70;14.33;;;19.50;99.90;;;;;;5022690;28;20465;-81
2021/08/23 06:18:35;;;;;;;21.77;16.90;;;19.50;99.90;;;;;;5016499;28;20468;-79
2021/08/23 06:21:03;;;;;;;17.20;15.50;;;19.50;99.90;;;;;;5015362;28;20465;-82
2021/08/23 06:23:31;;;;;;;20.53;15.53;;;19.50;99.90;;;;;;5009059;28;20465;-79
2021/08/23 06:25:58;;;;;;;19.23;15.70;;;19.50;99.90;;;;;;5014775;28;20527;-82
2021/08/23 06:28:25;;;;;;;18.87;16.87;;;19.50;99.90;;;;;;5015781;28;20468;-79
2021/08/23 06:30:52;;;;;;;20.30;15.50;;;19.50;99.90;;;;;;5022157;28;20913;-80
2021/08/23 06:33:20;;;;;;;22.77;18.40;;;19.50;99.90;;;;;;5017734;28;20495;-81
2021/08/23 06:35:47;;;;;;;19.77;16.60;;;19.50;99.90;;;;;;5021581;28;20571;-79
2021/08/23 06:38:14;;;;;;;21.87;17.83;;;19.50;99.90;;;;;;5024151;28;20464;-79
2021/08/23 06:40:43;;;;;;;26.33;18.40;;;19.50;99.90;;;;;;5024276;28;20456;-83
2021/08/23 06:43:09;;;;;;;24.53;19.67;;;19.50;99.90;;;;;;5018743;28;20456;-80
2021/08/23 06:45:36;;;;;;;21.90;18.47;;;19.60;99.90;;;;;;5020867;28;20476;-83
2021/08/23 06:48:03;;;;;;;26.20;20.60;;;19.50;99.90;;;;;;5018457;28;20536;-81
2021/08/23 06:50:30;;;;;;;27.00;19.30;;;19.50;99.90;;;;;;5020666;28;20497;-83
2021/08/23 06:52:57;;;;;;;21.93;19.50;;;19.50;99.90;;;;;;5020069;28;20491;-79
2021/08/23 06:55:24;;;;;;;23.70;19.00;;;19.50;99.90;;;;;;5018421;28;20469;-81
2021/08/23 06:57:52;;;;;;;24.20;19.67;;;19.50;99.90;;;;;;5017599;28;20480;-80
2021/08/23 07:00:19;;;;;;;27.37;21.33;;;19.50;99.90;;;;;;5013502;28;20475;-79
2021/08/23 07:02:46;;;;;;;27.70;22.13;;;19.50;99.90;;;;;;5019627;28;20480;-83
2021/08/23 07:05:13;;;;;;;25.93;21.83;;;19.60;99.90;;;;;;5021588;28;20508;-81
2021/08/23 07:07:40;;;;;;;28.40;22.63;;;19.60;99.90;;;;;;5014546;28;20492;-79
2021/08/23 07:10:10;;;;;;;26.90;21.27;;;19.60;99.90;;;;;;5015494;28;20525;-83
2021/08/23 07:12:37;;;;;;;26.47;21.20;;;19.70;99.90;;;;;;5012053;28;20579;-83
2021/08/23 07:15:06;;;;;;;27.47;22.60;;;19.70;99.90;;;;;;5008570;28;20937;-80
2021/08/23 07:17:33;;;;;;;25.70;21.13;;;19.70;99.90;;;;;;5015125;28;20465;-79
2021/08/23 07:20:00;;;;;;;27.63;22.83;;;19.70;99.90;;;;;;5013263;28;20464;-80
2021/08/23 07:22:28;;;;;;;27.73;23.33;;;19.70;99.90;;;;;;5016588;28;20463;-79
2021/08/23 07:24:55;;;;;;;33.20;23.93;;;19.70;99.90;;;;;;5015884;28;20499;-79
2021/08/23 07:27:22;;;;;;;37.53;28.50;;;19.70;99.90;;;;;;5014637;28;20459;-79
2021/08/23 07:29:49;;;;;;;41.63;32.10;;;19.70;99.90;;;;;;5017155;28;20468;-83
2021/08/23 07:32:17;;;;;;;47.80;34.23;;;19.70;99.90;;;;;;5009571;28;20492;-80
2021/08/23 07:34:44;;;;;;;45.13;33.63;;;19.70;99.90;;;;;;5013726;28;20471;-79
2021/08/23 07:37:13;;;;;;;47.37;33.43;;;19.70;99.90;;;;;;5015608;28;20962;-79
2021/08/23 07:39:40;;;;;;;51.70;36.13;;;19.70;99.90;;;;;;5019981;28;20476;-79
2021/08/23 07:42:07;;;;;;;47.50;35.17;;;19.70;99.90;;;;;;5013012;28;20500;-79
2021/08/23 07:44:34;;;;;;;52.63;35.00;;;19.70;99.90;;;;;;5013998;28;20460;-80
2021/08/23 07:47:01;;;;;;;45.90;35.17;;;19.70;99.90;;;;;;5012226;28;20489;-84
2021/08/23 07:49:29;;;;;;;51.00;36.00;;;19.70;99.90;;;;;;5005399;28;20465;-81
2021/08/23 07:51:56;;;;;;;50.00;35.83;;;19.70;99.90;;;;;;5011267;28;20507;-79
2021/08/23 07:54:23;;;;;;;49.97;36.20;;;19.70;99.90;;;;;;5016915;28;20480;-80
2021/08/23 07:56:50;;;;;;;45.77;33.60;;;19.70;99.90;;;;;;5013066;28;20551;-83
2021/08/23 07:59:16;;;;;;;49.63;35.10;;;19.70;99.90;;;;;;5010851;28;21062;-79
2021/08/23 08:01:43;;;;;;;56.27;35.07;;;19.70;99.90;;;;;;5011211;28;20500;-80
2021/08/23 08:04:12;;;;;;;56.90;36.73;;;19.70;99.90;;;;;;5012964;28;20798;-83
2021/08/23 08:06:44;;;;;;;53.80;35.70;;;19.70;99.90;;;;;;5015458;28;20467;-80
2021/08/23 08:09:11;;;;;;;50.67;35.47;;;19.70;99.90;;;;;;5012012;28;20473;-83
2021/08/23 08:11:38;;;;;;;47.17;34.90;;;19.80;99.90;;;;;;5013983;28;20488;-83
2021/08/23 08:14:04;;;;;;;47.73;34.30;;;19.80;99.90;;;;;;5007585;28;20469;-80
2021/08/23 08:16:31;;;;;;;45.77;34.13;;;19.90;99.90;;;;;;5017433;28;20471;-81
2021/08/23 08:18:58;;;;;;;47.60;34.10;;;19.90;99.90;;;;;;5010886;28;20479;-84
2021/08/23 08:21:25;;;;;;;44.30;34.03;;;19.90;99.90;;;;;;5017906;28;20462;-81
2021/08/23 08:23:54;;;;;;;46.60;33.77;;;19.90;99.90;;;;;;5011640;28;20575;-81
2021/08/23 08:26:21;;;;;;;38.20;30.57;;;19.90;99.90;;;;;;5014429;28;20460;-81
2021/08/23 08:28:48;;;;;;;39.50;29.67;;;19.90;99.90;;;;;;5017139;28;20473;-79
2021/08/23 08:31:15;;;;;;;36.20;29.03;;;19.90;99.90;;;;;;5016822;28;20603;-82
2021/08/23 08:33:41;;;;;;;37.20;26.93;;;19.90;99.90;;;;;;5010944;28;20733;-80
2021/08/23 08:36:08;;;;;;;27.63;23.60;;;19.80;99.90;;;;;;5011764;28;20461;-84
2021/08/23 08:38:36;;;;;;;28.40;21.53;;;19.80;99.90;;;;;;5010060;28;20468;-81
2021/08/23 08:41:04;;;;;;;24.30;19.60;;;19.80;99.90;;;;;;5012448;28;20461;-81
2021/08/23 08:43:31;;;;;;;25.50;19.10;;;19.80;99.90;;;;;;5014540;28;20480;-80
2021/08/23 08:45:58;;;;;;;24.10;19.07;;;19.90;99.90;;;;;;5018324;28;20473;-80
2021/08/23 08:48:25;;;;;;;25.53;16.83;;;19.80;99.90;;;;;;5018626;28;21733;-83
2021/08/23 08:50:53;;;;;;;20.73;16.00;;;19.90;99.90;;;;;;5011959;28;20559;-81
2021/08/23 08:53:20;;;;;;;22.03;17.60;;;19.80;99.90;;;;;;5009939;28;20543;-82
2021/08/23 08:55:47;;;;;;;27.53;17.10;;;19.80;99.90;;;;;;5018488;28;20543;-83
2021/08/23 08:58:15;;;;;;;19.70;15.40;;;19.80;99.90;;;;;;5014727;28;20461;-81
2021/08/23 09:00:43;;;;;;;22.23;17.90;;;19.70;99.90;;;;;;5008095;28;20871;-81
2021/08/23 09:03:10;;;;;;;19.80;15.30;;;19.80;99.90;;;;;;5020234;28;20496;-81
2021/08/23 09:05:38;;;;;;;23.87;15.23;;;19.80;99.90;;;;;;5010934;28;20464;-81
2021/08/23 09:08:06;;;;;;;18.77;13.40;;;19.80;99.90;;;;;;5012810;28;20993;-81
2021/08/23 09:10:39;;;;;;;19.07;13.97;;;19.80;99.90;;;;;;5016303;28;20471;-81
2021/08/23 09:13:08;;;;;;;16.53;13.13;;;19.80;99.90;;;;;;5012137;28;20891;-81
2021/08/23 09:15:37;;;;;;;18.70;14.50;;;19.90;99.90;;;;;;5014144;28;20464;-81
2021/08/23 09:18:06;;;;;;;18.87;13.60;;;19.90;99.90;;;;;;5016052;28;20595;-81
2021/08/23 09:20:33;;;;;;;18.40;13.17;;;20.00;99.90;;;;;;5017075;28;20551;-81
2021/08/23 09:23:12;;;;;;;15.13;13.53;;;20.00;99.90;;;;;;5009541;28;20465;-82
2021/08/23 09:25:39;;;;;;;14.87;12.90;;;20.10;99.90;;;;;;5014893;28;20482;-85
2021/08/23 09:28:07;;;;;;;14.40;11.13;;;20.10;99.90;;;;;;5014888;28;20563;-82
2021/08/23 09:30:36;;;;;;;15.50;13.37;;;20.20;99.90;;;;;;5022425;28;20465;-81
2021/08/23 09:33:05;;;;;;;29.00;25.80;;;20.20;99.90;;;;;;5018662;28;20489;-81
2021/08/23 09:35:35;;;;;;;15.90;14.27;;;20.20;99.90;;;;;;5019576;28;20880;-83
2021/08/23 09:38:02;;;;;;;18.17;13.40;;;20.20;99.90;;;;;;5020842;28;20464;-82
2021/08/23 09:40:31;;;;;;;15.80;14.03;;;20.30;99.90;;;;;;5015696;28;20464;-81
2021/08/23 09:43:00;;;;;;;14.60;12.70;;;20.30;99.90;;;;;;5015991;28;20492;-83
2021/08/23 09:45:27;;;;;;;16.33;14.57;;;20.30;99.90;;;;;;5020875;28;20468;-83
2021/08/23 09:48:03;;;;;;;16.27;14.60;;;20.40;99.90;;;;;;5020445;28;20492;-83
2021/08/23 09:50:40;;;;;;;16.83;15.10;;;20.40;99.90;;;;;;5015749;28;20882;-83
2021/08/23 09:53:08;;;;;;;19.40;17.37;;;20.40;99.90;;;;;;5019304;28;20515;-81
2021/08/23 09:55:38;;;;;;;18.77;16.87;;;20.40;99.90;;;;;;5010632;28;20469;-81
2021/08/23 09:58:06;;;;;;;19.53;17.63;;;20.40;99.90;;;;;;5017451;28;20476;-81
2021/08/23 10:00:33;;;;;;;20.13;18.03;;;20.40;99.90;;;;;;5014368;28;21241;-84
2021/08/23 10:03:03;;;;;;;19.60;17.50;;;20.40;99.90;;;;;;5011234;28;20521;-81
2021/08/23 10:05:31;;;;;;;30.30;26.00;;;20.40;99.90;;;;;;5019798;28;20468;-81
2021/08/23 10:07:58;;;;;;;19.03;17.13;;;20.50;99.90;;;;;;5015769;28;20475;-81
2021/08/23 10:10:25;;;;;;;20.33;18.23;;;20.50;99.90;;;;;;5012005;28;20469;-81
2021/08/23 10:12:53;;;;;;;33.67;30.00;;;20.50;99.90;;;;;;5015511;28;20496;-82
2021/08/23 10:15:20;;;;;;;37.97;33.00;;;20.50;99.90;;;;;;5015888;28;20465;-81
2021/08/23 10:17:48;;;;;;;21.90;19.63;;;20.60;99.90;;;;;;5016517;28;21074;-81
2021/08/23 10:20:16;;;;;;;21.47;19.40;;;20.60;99.90;;;;;;5015650;28;20492;-82
2021/08/23 10:22:43;;;;;;;22.50;20.17;;;20.70;99.90;;;;;;5023154;28;20460;-83
2021/08/23 10:25:11;;;;;;;21.60;19.60;;;20.70;99.90;;;;;;5032157;28;20543;-81
2021/08/23 10:27:40;;;;;;;21.17;18.90;;;20.70;99.90;;;;;;5007976;28;21910;-81
2021/08/23 10:30:09;;;;;;;22.27;19.97;;;20.80;99.90;;;;;;5032961;28;20466;-80
2021/08/23 10:32:37;;;;;;;21.60;19.07;;;20.90;99.90;;;;;;5030911;28;20472;-84
2021/08/23 10:35:20;;;;;;;20.77;18.67;;;21.00;99.90;;;;;;5027158;28;20517;-81
2021/08/23 10:37:48;;;;;;;21.00;18.83;;;21.00;99.90;;;;;;5029582;28;20556;-81
2021/08/23 10:40:16;;;;;;;21.00;19.00;;;21.10;99.90;;;;;;5030076;28;20963;-80
2021/08/23 10:42:46;;;;;;;22.30;19.97;;;21.10;99.90;;;;;;5027904;28;21209;-85
2021/08/23 10:45:15;;;;;;;22.77;20.37;;;21.20;99.90;;;;;;5034505;28;20915;-80
2021/08/23 10:47:43;;;;;;;27.13;19.17;;;21.20;99.90;;;;;;5027671;28;21050;-83
2021/08/23 10:50:22;;;;;;;20.80;18.70;;;21.20;99.90;;;;;;5026357;28;20491;-82
2021/08/23 10:52:49;;;;;;;39.20;31.53;;;21.30;99.90;;;;;;5029734;28;20494;-81
2021/08/23 10:55:22;;;;;;;32.73;29.13;;;21.40;99.90;;;;;;5021964;28;20497;-81
2021/08/23 10:57:49;;;;;;;21.13;19.00;;;21.40;99.90;;;;;;5029445;28;20463;-80
2021/08/23 11:00:17;;;;;;;20.07;17.97;;;21.40;99.90;;;;;;5024771;28;20464;-81
2021/08/23 11:02:44;;;;;;;20.07;18.07;;;21.30;99.90;;;;;;5018427;28;20487;-81
2021/08/23 11:05:14;;;;;;;18.40;16.50;;;21.40;99.90;;;;;;5016300;28;21002;-83
2021/08/23 11:07:43;;;;;;;20.50;16.00;;;21.40;99.90;;;;;;5015461;28;20714;-79
2021/08/23 11:10:13;;;;;;;18.30;16.40;;;21.50;99.90;;;;;;5011703;28;20469;-80
2021/08/23 11:12:42;;;;;;;17.20;14.47;;;21.50;99.90;;;;;;5016222;28;20484;-81
2021/08/23 11:15:15;;;;;;;15.30;13.13;;;21.40;99.90;;;;;;5012985;28;21367;-80
2021/08/23 11:17:45;;;;;;;15.10;13.70;;;21.40;99.90;;;;;;5017327;28;20492;-81
2021/08/23 11:20:12;;;;;;;14.93;13.50;;;21.30;99.90;;;;;;5015083;28;20470;-82
2021/08/23 11:22:39;;;;;;;14.70;13.10;;;21.30;99.90;;;;;;5010340;28;20473;-83
2021/08/23 11:25:08;;;;;;;14.67;13.10;;;21.30;99.90;;;;;;5010248;28;20465;-81
2021/08/23 11:27:35;;;;;;;14.47;13.07;;;21.30;99.90;;;;;;5013840;28;20572;-81
2021/08/23 11:30:03;;;;;;;20.20;13.73;;;21.40;99.90;;;;;;5018478;28;20460;-82
2021/08/23 11:32:31;;;;;;;12.00;10.80;;;21.40;99.90;;;;;;5016437;28;20464;-82
2021/08/23 11:35:00;;;;;;;14.67;12.47;;;21.40;99.90;;;;;;5013753;28;20516;-79
2021/08/23 11:37:29;;;;;;;12.70;11.20;;;21.40;99.90;;;;;;5014680;28;20888;-83
2021/08/23 11:40:09;;;;;;;13.63;12.33;;;21.50;99.90;;;;;;5016102;28;20458;-82
2021/08/23 11:42:37;;;;;;;11.83;10.63;;;21.60;99.90;;;;;;5017886;28;20967;-81
2021/08/23 11:45:05;;;;;;;16.70;12.37;;;21.60;99.90;;;;;;5012329;28;20838;-81
2021/08/23 11:47:33;;;;;;;13.73;12.43;;;21.60;99.90;;;;;;5008176;28;21124;-80
2021/08/23 11:50:01;;;;;;;14.80;13.37;;;21.60;99.90;;;;;;5012854;28;20969;-81
2021/08/23 11:52:29;;;;;;;14.63;13.23;;;21.60;99.90;;;;;;5011392;28;20815;-80
2021/08/23 11:54:57;;;;;;;14.07;12.67;;;21.60;99.90;;;;;;5011981;28;20505;-84
2021/08/23 11:57:27;;;;;;;13.80;12.50;;;21.60;99.90;;;;;;5014793;28;20472;-82
2021/08/23 11:59:58;;;;;;;13.70;12.37;;;21.60;99.90;;;;;;5010477;28;20932;-80
2021/08/23 12:02:32;;;;;;;12.10;10.90;;;21.60;99.90;;;;;;5015453;28;20492;-81
2021/08/23 12:05:13;;;;;;;11.70;10.70;;;21.60;99.90;;;;;;5014123;28;21315;-81
2021/08/23 12:07:48;;;;;;;16.93;14.43;;;21.70;99.90;;;;;;5008806;28;20464;-80
2021/08/23 12:10:28;;;;;;;16.43;13.07;;;21.70;99.90;;;;;;5007820;28;20499;-82
2021/08/23 12:13:13;;;;;;;15.43;13.90;;;21.60;99.90;;;;;;5012941;28;20468;-80
2021/08/23 12:15:51;;;;;;;14.57;13.10;;;21.60;99.90;;;;;;5012899;28;20555;-81
2021/08/23 12:18:19;;;;;;;14.20;12.90;;;21.60;99.90;;;;;;5013124;28;20885;-83
2021/08/23 12:21:07;;;;;;;14.60;13.07;;;21.60;99.90;;;;;;5011321;28;20552;-81
2021/08/23 12:23:55;;;;;;;14.33;12.87;;;21.70;99.90;;;;;;5008956;28;20473;-84
2021/08/23 12:26:33;;;;;;;14.47;12.97;;;21.70;99.90;;;;;;5014431;28;20464;-84
2021/08/23 12:29:03;;;;;;;14.90;13.40;;;21.70;99.90;;;;;;5016074;28;20469;-81
2021/08/23 12:31:31;;;;;;;16.73;12.23;;;21.70;99.90;;;;;;5010169;28;20480;-82
2021/08/23 12:33:58;;;;;;;12.47;11.27;;;21.70;99.90;;;;;;5009773;28;20493;-80